Terminal Aerodrome Forecast
Issued by NWS

Home | Current Version | Previous Version | Text Only | Print | Product List | Glossary On
Versions: 1 2 3 4 5 6 7 8 9 10 11 12 13 14 15 16 17
071
FTUS43 KGRR 272116 AAA
TAFLAN
TAF AMD
KLAN 272116Z 2721/2818 29010KT P6SM SCT045
     FM272130 36007KT P6SM VCTS BKN040CB
     FM280000 30004KT P6SM SCT040
     FM280600 04003KT 3SM BR SCT100
     FM281300 04003KT P6SM VCSH SCT040 BKN100
     FM281600 04005KT P6SM VCTS BKN040CB=

USA.gov is the U.S. government's official web portal to all federal, state and local government web resources and services.